Language: 


Des rapports , des résumés tant et plus, au choix de chacun....


Données statistiques de la station
Quotidien Rapport Mars 18, 2017 Unités:  Anglais    Métrique   les deux
« Précédent Jour
Suivant Jour »
Quotidien Hebdomadaire Mensuel Annuel Actuel
  Haut: Bas: Moyen:
Température: 57.7 °F 46.9 °F 52.5 °F
Pt de rosée: 54.1 °F 45.7 °F 51.3 °F
Humidité: 98 % 85 % 95 %
Vitesse du vent: 28.9 mph 7.4 mph 15.3 mph
Rafales: 35.1 mph - -
Vent:- - West
Pression: 29.9 in 29.7 in -
Précipitation: 0.28 in    
Historical Graphs
 
 
Données statistiques pour Mars 18, 2017
Heure Température Point de rosée Pression Vent Vitesse du vent Refales Humidité Pluie (taux horaire)
00:01 46.9 °F 45.7 °F 29.9 in WSW 23.9 mph 26.4 mph 95 % 0.02 in
00:06 47.1 °F 45.9 °F 29.9 in WSW 16.6 mph 26.8 mph 95 % 0.02 in
00:11 47.1 °F 45.9 °F 29.8 in WSW 23.3 mph 26.8 mph 95 % 0.02 in
00:16 47.1 °F 45.9 °F 29.8 in WSW 23 mph 30 mph 95 % 0.02 in
00:21 47.1 °F 45.9 °F 29.8 in WSW 20.6 mph 30 mph 95 % 0.01 in
00:26 47.1 °F 45.9 °F 29.8 in West 27.7 mph 30.4 mph 95 % 0.01 in
00:31 47.3 °F 46.2 °F 29.8 in WSW 28.4 mph 33.6 mph 96 % 0.01 in
00:36 47.3 °F 46.2 °F 29.8 in West 22.6 mph 33.6 mph 96 % 0.01 in
00:41 47.3 °F 46.2 °F 29.8 in West 25.3 mph 31.8 mph 96 % 0.01 in
00:46 47.5 °F 46.4 °F 29.8 in WSW 18.6 mph 28 mph 96 % 0.01 in
00:51 47.5 °F 46.4 °F 29.8 in WSW 17.4 mph 27.5 mph 96 % 0.01 in
00:56 47.5 °F 46.4 °F 29.8 in WNW 17.2 mph 26.2 mph 96 % 0.01 in
01:01 47.5 °F 46.4 °F 29.8 in WSW 12.8 mph 26.6 mph 96 % 0 in
01:06 47.5 °F 46.4 °F 29.8 in WSW 26.2 mph 26.6 mph 96 % 0 in
01:11 47.3 °F 46.6 °F 29.8 in WSW 22.1 mph 26.2 mph 97 % 0.01 in
01:16 47.3 °F 46.6 °F 29.8 in WSW 23.3 mph 26.2 mph 97 % 0.01 in
01:21 47.1 °F 46.4 °F 29.8 in WSW 23.5 mph 32.2 mph 97 % 0.01 in
01:26 47.1 °F 46.6 °F 29.8 in WSW 21 mph 32.2 mph 98 % 0.01 in
01:31 47.3 °F 46.8 °F 29.8 in WSW 16.1 mph 29.1 mph 98 % 0.01 in
01:36 47.3 °F 46.8 °F 29.8 in WSW 19.2 mph 29.1 mph 98 % 0.01 in
01:41 47.3 °F 46.8 °F 29.8 in WSW 19.7 mph 25.9 mph 98 % 0.01 in
01:46 47.5 °F 46.9 °F 29.8 in WSW 18.8 mph 32.7 mph 98 % 0.01 in
01:51 47.5 °F 46.9 °F 29.8 in West 14.5 mph 32.7 mph 98 % 0.01 in
01:56 47.7 °F 47.1 °F 29.8 in WSW 21.3 mph 25.9 mph 98 % 0.03 in
02:02 47.8 °F 47.3 °F 29.8 in WSW 17.4 mph 26.6 mph 98 % 0.03 in
02:07 47.8 °F 47.3 °F 29.8 in West 14.1 mph 26.6 mph 98 % 0.02 in
02:12 48 °F 47.5 °F 29.8 in WSW 26.6 mph 26.6 mph 98 % 0.01 in
02:17 48 °F 47.5 °F 29.8 in West 28.9 mph 28.9 mph 98 % 0.02 in
02:22 48.2 °F 47.7 °F 29.8 in West 23.3 mph 30 mph 98 % 0.02 in
02:27 48.2 °F 47.7 °F 29.8 in West 27.5 mph 30 mph 98 % 0.02 in
02:32 48.2 °F 47.7 °F 29.8 in WSW 23 mph 29.3 mph 98 % 0.02 in
02:37 48.4 °F 47.8 °F 29.8 in West 17.7 mph 30.6 mph 98 % 0.03 in
02:42 48.4 °F 47.8 °F 29.8 in West 28 mph 35.1 mph 98 % 0.03 in
02:47 48.6 °F 48 °F 29.8 in SW 25.9 mph 35.1 mph 98 % 0.03 in
02:52 48.6 °F 48 °F 29.8 in WSW 20.4 mph 28 mph 98 % 0.03 in
02:57 48.6 °F 48 °F 29.8 in West 16.8 mph 33.3 mph 98 % 0.02 in
03:02 48.6 °F 48 °F 29.8 in West 17.7 mph 33.3 mph 98 % 0.02 in
03:07 48.7 °F 48.2 °F 29.8 in West 22.8 mph 32.4 mph 98 % 0.02 in
03:12 48.7 °F 48.2 °F 29.8 in West 22.6 mph 22.8 mph 98 % 0.02 in
03:17 48.9 °F 48.4 °F 29.8 in WSW 24.2 mph 24.2 mph 98 % 0.02 in
03:22 48.9 °F 48.4 °F 29.7 in WSW 22.4 mph 25.7 mph 98 % 0.02 in
03:27 48.9 °F 48.4 °F 29.7 in WSW 17.9 mph 29.8 mph 98 % 0.02 in
03:32 48.9 °F 48.4 °F 29.7 in West 17 mph 29.8 mph 98 % 0.02 in
03:37 49.1 °F 48.6 °F 29.7 in WSW 21.5 mph 23.3 mph 98 % 0.02 in
03:42 49.3 °F 48.7 °F 29.7 in WSW 20.4 mph 28.6 mph 98 % 0.02 in
03:47 49.3 °F 48.7 °F 29.7 in West 24.4 mph 28.6 mph 98 % 0.02 in
03:52 49.5 °F 48.9 °F 29.7 in West 23.7 mph 26.4 mph 98 % 0.02 in
03:57 49.5 °F 48.9 °F 29.7 in WSW 17.4 mph 23.9 mph 98 % 0.02 in
04:02 49.6 °F 49.1 °F 29.7 in West 17.7 mph 24.4 mph 98 % 0.02 in
04:07 49.6 °F 49.1 °F 29.7 in WSW 24.6 mph 28.6 mph 98 % 0.01 in
04:12 49.8 °F 49.3 °F 29.7 in West 20.8 mph 28.6 mph 98 % 0.01 in
04:17 49.8 °F 49.3 °F 29.7 in West 17.7 mph 28.6 mph 98 % 0.01 in
04:22 49.8 °F 49.3 °F 29.7 in West 13 mph 28.6 mph 98 % 0.01 in
04:27 50 °F 49.5 °F 29.7 in WSW 12.3 mph 23.7 mph 98 % 0.01 in
04:32 50 °F 49.5 °F 29.7 in West 18.8 mph 24.2 mph 98 % 0.01 in
04:37 50 °F 49.5 °F 29.7 in West 20.4 mph 25.9 mph 98 % 0.01 in
04:42 50.2 °F 49.6 °F 29.7 in West 16.8 mph 25.9 mph 98 % 0.01 in
04:47 50 °F 49.5 °F 29.7 in West 14.1 mph 23.7 mph 98 % 0.01 in
04:52 50.2 °F 49.6 °F 29.7 in West 23.5 mph 23.5 mph 98 % 0.01 in
04:57 50.2 °F 49.6 °F 29.7 in WSW 17.2 mph 23.5 mph 98 % 0.01 in
05:03 50.2 °F 49.6 °F 29.7 in West 12.1 mph 22.6 mph 98 % 0.01 in
05:08 50.4 °F 49.8 °F 29.7 in WSW 15.4 mph 20.4 mph 98 % 0.01 in
05:13 50.4 °F 49.8 °F 29.7 in West 15.7 mph 23 mph 98 % 0.01 in
05:18 50.4 °F 49.8 °F 29.7 in WSW 23.9 mph 23.9 mph 98 % 0.01 in
05:23 50.4 °F 49.8 °F 29.7 in WSW 8.9 mph 23.9 mph 98 % 0.01 in
05:28 50.4 °F 49.8 °F 29.7 in West 11.2 mph 24.4 mph 98 % 0.01 in
05:33 50.5 °F 50 °F 29.7 in West 15.2 mph 24.4 mph 98 % 0 in
05:38 50.5 °F 50 °F 29.7 in West 19.7 mph 23.3 mph 98 % 0 in
05:43 50.5 °F 50 °F 29.7 in West 15.2 mph 23.3 mph 98 % 0 in
05:48 50.7 °F 50.2 °F 29.7 in West 16.1 mph 19.7 mph 98 % 0 in
05:53 50.7 °F 50.2 °F 29.7 in West 10.7 mph 20.6 mph 98 % 0 in
05:58 50.9 °F 50.4 °F 29.7 in West 17.4 mph 22.1 mph 98 % 0 in
06:03 50.9 °F 50.4 °F 29.7 in West 20.6 mph 22.1 mph 98 % 0 in
06:08 50.9 °F 50.4 °F 29.7 in NW 19.9 mph 20.6 mph 98 % 0 in
06:13 50.9 °F 50.4 °F 29.7 in West 17.4 mph 20.6 mph 98 % 0 in
06:18 50.9 °F 50.4 °F 29.7 in NW 17 mph 19.9 mph 98 % 0 in
06:23 50.9 °F 50.4 °F 29.7 in WSW 12.3 mph 19.9 mph 98 % 0 in
06:28 51.1 °F 50.5 °F 29.7 in WSW 15.9 mph 19.2 mph 98 % 0.01 in
06:33 51.1 °F 50.5 °F 29.7 in WSW 13 mph 19.5 mph 98 % 0.01 in
06:38 51.1 °F 50.5 °F 29.7 in West 10.7 mph 19.5 mph 98 % 0.03 in
06:43 51.1 °F 50.5 °F 29.7 in West 11 mph 19.9 mph 98 % 0.03 in
06:48 51.1 °F 50.5 °F 29.7 in West 7.8 mph 19.9 mph 98 % 0.04 in
06:53 51.1 °F 50.5 °F 29.7 in West 15.7 mph 17 mph 98 % 0.04 in
06:58 51.1 °F 50.5 °F 29.7 in West 15.7 mph 17.4 mph 98 % 0.05 in
07:03 51.1 °F 50.5 °F 29.7 in West 10.1 mph 17.4 mph 98 % 0.05 in
07:08 51.1 °F 50.5 °F 29.8 in West 10.3 mph 18.6 mph 98 % 0.06 in
07:13 51.1 °F 50.5 °F 29.8 in WSW 10.3 mph 18.6 mph 98 % 0.06 in
07:18 51.3 °F 50.7 °F 29.8 in West 15.2 mph 15.7 mph 98 % 0.07 in
07:23 51.3 °F 50.7 °F 29.8 in West 12.8 mph 15.7 mph 98 % 0.08 in
07:28 51.3 °F 50.7 °F 29.8 in West 12.5 mph 17 mph 98 % 0.07 in
07:33 51.3 °F 50.7 °F 29.8 in West 16.1 mph 17 mph 98 % 0.08 in
07:38 51.3 °F 50.7 °F 29.8 in West 12.5 mph 17 mph 98 % 0.08 in
07:43 51.3 °F 50.7 °F 29.8 in West 12.8 mph 17 mph 98 % 0.07 in
07:49 51.3 °F 50.7 °F 29.8 in West 11 mph 17.4 mph 98 % 0.08 in
07:54 51.3 °F 50.7 °F 29.8 in West 10.7 mph 19 mph 98 % 0.09 in
07:59 51.4 °F 50.5 °F 29.8 in West 19.9 mph 19.9 mph 97 % 0.08 in
08:04 51.4 °F 50.5 °F 29.8 in West 11.2 mph 19.9 mph 97 % 0.09 in
08:09 51.4 °F 50.5 °F 29.8 in West 15.2 mph 19.9 mph 97 % 0.08 in
08:14 51.4 °F 50.5 °F 29.8 in WSW 8.5 mph 19.7 mph 97 % 0.09 in
08:19 51.4 °F 50.5 °F 29.8 in WSW 17.7 mph 17.7 mph 97 % 0.08 in
08:24 51.6 °F 50.7 °F 29.8 in WSW 12.8 mph 17.7 mph 97 % 0.08 in
08:29 51.6 °F 50.7 °F 29.8 in West 14.5 mph 17.7 mph 97 % 0.08 in
08:34 51.6 °F 50.7 °F 29.8 in WSW 16.1 mph 17.4 mph 97 % 0.08 in
08:39 51.6 °F 50.7 °F 29.8 in WSW 17.7 mph 17.7 mph 97 % 0.07 in
08:44 51.8 °F 50.9 °F 29.8 in West 11.9 mph 18.8 mph 97 % 0.06 in
08:49 51.8 °F 50.9 °F 29.8 in West 13.2 mph 22.1 mph 97 % 0.07 in
08:54 52 °F 51.1 °F 29.8 in WSW 13 mph 22.1 mph 97 % 0.06 in
08:59 52 °F 51.1 °F 29.8 in West 12.5 mph 17.9 mph 97 % 0.06 in
09:04 52 °F 51.1 °F 29.8 in West 17.2 mph 17.2 mph 97 % 0.05 in
09:09 52 °F 51.1 °F 29.8 in West 14.3 mph 17.2 mph 97 % 0.05 in
09:14 52 °F 51.1 °F 29.8 in West 14.8 mph 17.2 mph 97 % 0.04 in
09:19 52.2 °F 51.3 °F 29.8 in WSW 16.1 mph 17.2 mph 97 % 0.05 in
09:24 52.2 °F 51.3 °F 29.8 in WSW 12.8 mph 17.2 mph 97 % 0.04 in
09:29 52.2 °F 51.3 °F 29.8 in West 13.2 mph 16.6 mph 97 % 0.04 in
09:34 52.3 °F 51.4 °F 29.8 in West 10.1 mph 15.9 mph 97 % 0.02 in
09:39 52.3 °F 51.4 °F 29.8 in West 13.9 mph 15.2 mph 97 % 0.02 in
09:44 52.3 °F 51.4 °F 29.8 in West 15.9 mph 20.6 mph 97 % 0.02 in
09:49 52.5 °F 51.6 °F 29.8 in West 8.1 mph 20.6 mph 97 % 0.01 in
09:54 52.9 °F 52 °F 29.8 in WSW 14.8 mph 17.2 mph 97 % 0.01 in
09:59 53.1 °F 52.2 °F 29.8 in WNW 16.6 mph 17.7 mph 97 % 0.01 in
10:04 53.2 °F 52.3 °F 29.8 in West 12.3 mph 22.6 mph 97 % 0.01 in
10:09 53.4 °F 52.7 °F 29.8 in West 17.9 mph 22.6 mph 97 % 0.01 in
10:14 53.4 °F 52.7 °F 29.8 in WSW 13 mph 19.2 mph 97 % 0.01 in
10:19 54 °F 53.1 °F 29.8 in West 12.5 mph 19.2 mph 97 % 0 in
10:24 54.1 °F 53.4 °F 29.8 in WSW 15.9 mph 19.7 mph 97 % 0 in
10:29 54.7 °F 53.8 °F 29.8 in West 11 mph 19.7 mph 97 % 0 in
10:34 54.9 °F 54 °F 29.8 in West 16.8 mph 19.5 mph 97 % 0 in
10:39 54.9 °F 54 °F 29.8 in West 15.9 mph 23.9 mph 97 % 0 in
10:44 54.9 °F 53.6 °F 29.8 in West 23.9 mph 23.9 mph 96 % 0 in
10:49 54.9 °F 53.6 °F 29.8 in West 17.7 mph 23.9 mph 96 % 0 in
10:54 54.9 °F 53.4 °F 29.8 in West 17 mph 22.8 mph 95 % 0 in
10:59 55 °F 53.8 °F 29.8 in West 13.4 mph 19.5 mph 95 % 0 in
11:04 55 °F 53.4 °F 29.8 in West 13 mph 20.4 mph 94 % 0 in
11:09 55.2 °F 53.6 °F 29.8 in West 13 mph 20.4 mph 94 % 0 in
11:14 55.6 °F 54 °F 29.8 in WSW 17.7 mph 19.7 mph 94 % 0 in
11:19 55.6 °F 53.8 °F 29.8 in West 10.5 mph 19.7 mph 94 % 0 in
11:24 55.6 °F 53.4 °F 29.8 in WSW 17.7 mph 19.7 mph 93 % 0 in
11:29 55.6 °F 53.4 °F 29.8 in West 13 mph 27.3 mph 93 % 0 in
11:34 55.8 °F 53.8 °F 29.8 in WSW 21.3 mph 27.3 mph 93 % 0 in
11:39 55.9 °F 54 °F 29.8 in West 17.2 mph 22.8 mph 93 % 0 in
11:44 56.1 °F 54 °F 29.8 in West 15.4 mph 22.8 mph 92 % 0 in
11:49 56.5 °F 54.1 °F 29.8 in WSW 17.2 mph 24.4 mph 92 % 0 in
11:54 56.7 °F 53.8 °F 29.8 in West 17.4 mph 24.4 mph 90 % 0 in
11:59 56.7 °F 53.8 °F 29.8 in West 14.1 mph 23.7 mph 90 % 0 in
12:04 56.8 °F 54 °F 29.8 in West 17.4 mph 22.6 mph 90 % 0 in
12:09 57 °F 53.8 °F 29.8 in WSW 15.4 mph 27.7 mph 89 % 0 in
12:14 57 °F 53.8 °F 29.8 in WSW 7.4 mph 27.7 mph 89 % 0 in
12:19 57.2 °F 53.8 °F 29.8 in West 15.4 mph 26.2 mph 88 % 0 in
12:24 57.6 °F 54 °F 29.8 in WNW 15.9 mph 25.7 mph 88 % 0 in
12:29 57.7 °F 54.1 °F 29.8 in WNW 16.3 mph 22.6 mph 88 % 0 in
12:34 57.7 °F 53.6 °F 29.8 in West 15.2 mph 22.1 mph 86 % 0 in
12:39 57.6 °F 53.8 °F 29.8 in West 17.7 mph 19.7 mph 87 % 0 in
12:44 57.7 °F 53.6 °F 29.8 in West 15.2 mph 22.6 mph 86 % 0 in
12:49 57.2 °F 53.1 °F 29.8 in West 12.1 mph 22.6 mph 86 % 0 in
12:54 56.8 °F 52.7 °F 29.8 in West 12.8 mph 19.7 mph 86 % 0 in
12:59 56.7 °F 52.9 °F 29.8 in WSW 15.9 mph 19.9 mph 87 % 0 in
13:04 56.7 °F 53.2 °F 29.8 in West 15.4 mph 22.6 mph 88 % 0 in
13:09 56.5 °F 53.1 °F 29.8 in West 21 mph 22.6 mph 88 % 0 in
13:14 56.5 °F 53.1 °F 29.8 in West 17.2 mph 21 mph 88 % 0 in
13:20 56.7 °F 53.2 °F 29.8 in WSW 16.6 mph 19.7 mph 88 % 0 in
13:25 56.8 °F 53.4 °F 29.9 in West 7.8 mph 20.4 mph 88 % 0 in
13:30 57 °F 53.4 °F 29.9 in West 16.3 mph 20.4 mph 88 % 0 in
13:35 56.8 °F 53.4 °F 29.9 in West 18.6 mph 22.1 mph 88 % 0 in
13:45 57 °F 53.2 °F 29.8 in WSW 22.1 mph 23.3 mph 87 % 0 in
13:50 56.8 °F 53.1 °F 29.8 in West 11 mph 23.3 mph 87 % 0 in
13:55 57 °F 53.4 °F 29.9 in WSW 16.1 mph 22.1 mph 88 % 0 in
14:00 57.2 °F 53.8 °F 29.9 in WSW 15.9 mph 21.3 mph 88 % 0 in
14:05 57.4 °F 54 °F 29.9 in West 12.8 mph 19.5 mph 88 % 0 in
14:10 57.6 °F 54 °F 29.8 in WSW 14.1 mph 19 mph 88 % 0 in
14:15 57.6 °F 53.8 °F 29.8 in WSW 15.2 mph 19.7 mph 87 % 0 in
14:20 57.7 °F 54 °F 29.8 in WSW 14.3 mph 19.7 mph 87 % 0 in
14:25 57.6 °F 53.4 °F 29.8 in WSW 16.3 mph 21.9 mph 86 % 0 in
14:30 57.4 °F 52.9 °F 29.8 in WSW 15.9 mph 25.3 mph 85 % 0 in
14:35 57.2 °F 52.9 °F 29.8 in West 21.5 mph 25.3 mph 85 % 0 in
14:40 57 °F 52.9 °F 29.9 in West 17.9 mph 23.5 mph 86 % 0 in
14:45 56.8 °F 52.7 °F 29.9 in WNW 11 mph 23.5 mph 86 % 0 in
14:46 56.8 °F 52.7 °F 29.9 in WSW 15.2 mph 23.5 mph 86 % 0 in
14:51 56.7 °F 52.2 °F 29.9 in WSW 15.2 mph 25.1 mph 85 % 0 in
14:56 56.8 °F 52.7 °F 29.8 in West 10.7 mph 25.1 mph 86 % 0 in
15:01 56.7 °F 52.5 °F 29.8 in WSW 17 mph 23.7 mph 86 % 0 in
15:06 56.7 °F 52.5 °F 29.8 in West 13.9 mph 21.9 mph 86 % 0 in
15:11 56.7 °F 52.5 °F 29.9 in WSW 21.9 mph 21.9 mph 86 % 0 in
15:16 56.8 °F 53.1 °F 29.9 in West 12.8 mph 21.9 mph 87 % 0 in
15:21 56.8 °F 53.1 °F 29.9 in West 12.1 mph 19.9 mph 87 % 0 in
15:26 56.7 °F 52.9 °F 29.9 in West 9.8 mph 19.9 mph 87 % 0 in
15:31 56.5 °F 53.1 °F 29.9 in WNW 13.2 mph 22.8 mph 88 % 0 in
15:36 56.5 °F 53.1 °F 29.9 in WSW 12.5 mph 22.8 mph 88 % 0 in
15:41 56.3 °F 53.1 °F 29.8 in West 13.2 mph 19.7 mph 89 % 0 in
15:46 56.3 °F 53.1 °F 29.8 in WSW 19 mph 19.7 mph 89 % 0 in
15:51 56.3 °F 53.1 °F 29.8 in WSW 11.2 mph 19 mph 89 % 0 in
15:56 56.3 °F 53.1 °F 29.8 in WSW 16.3 mph 18.6 mph 89 % 0 in
16:01 56.1 °F 53.1 °F 29.8 in WSW 13.4 mph 19.9 mph 89 % 0 in
16:06 56.1 °F 53.1 °F 29.8 in West 19.2 mph 20.4 mph 89 % 0 in
16:11 55.9 °F 53.1 °F 29.9 in WSW 17.2 mph 20.4 mph 90 % 0 in
16:16 55.8 °F 52.9 °F 29.9 in West 13.2 mph 21.9 mph 90 % 0 in
16:21 55.6 °F 52.7 °F 29.9 in WSW 12.8 mph 21.9 mph 90 % 0 in
16:26 55.6 °F 53.1 °F 29.8 in West 16.3 mph 20.4 mph 91 % 0 in
16:31 55.6 °F 52.9 °F 29.8 in WSW 13.6 mph 20.4 mph 91 % 0 in
16:36 55.6 °F 52.9 °F 29.8 in WSW 14.8 mph 20.4 mph 91 % 0 in
16:41 55.2 °F 52.7 °F 29.8 in WNW 14.1 mph 21 mph 91 % 0 in
16:46 55.2 °F 52.7 °F 29.8 in WSW 14.5 mph 21 mph 91 % 0 in
16:51 55 °F 52.9 °F 29.8 in West 14.1 mph 18.1 mph 92 % 0 in
16:56 54.9 °F 52.7 °F 29.9 in West 13.9 mph 18.8 mph 92 % 0 in
17:01 54.9 °F 52.5 °F 29.9 in West 17.2 mph 23 mph 92 % 0 in
17:06 54.7 °F 52.5 °F 29.9 in WSW 12.8 mph 23 mph 93 % 0 in
17:11 54.7 °F 52.5 °F 29.9 in West 12.5 mph 19.2 mph 93 % 0 in
17:16 54.3 °F 52.3 °F 29.9 in WSW 13.2 mph 19.7 mph 93 % 0 in
17:21 54.1 °F 52.5 °F 29.9 in WSW 8.5 mph 19.7 mph 94 % 0 in
17:26 54 °F 52.3 °F 29.8 in WSW 9.8 mph 15.4 mph 94 % 0 in
17:31 54 °F 52.7 °F 29.8 in WSW 10.3 mph 15.9 mph 95 % 0 in
17:36 54 °F 52.5 °F 29.8 in West 15.9 mph 17.4 mph 95 % 0 in
17:41 54 °F 52.9 °F 29.8 in WSW 11 mph 17.7 mph 96 % 0 in
17:46 53.8 °F 52.5 °F 29.8 in West 11 mph 17.7 mph 96 % 0 in
17:47 53.8 °F 52.5 °F 29.8 in WSW 12.3 mph 16.6 mph 96 % 0 in
17:52 53.8 °F 52.5 °F 29.9 in WSW 15.4 mph 15.4 mph 96 % 0 in
17:57 53.4 °F 52.3 °F 29.9 in WSW 13.9 mph 17.2 mph 96 % 0 in
18:02 53.4 °F 52.7 °F 29.9 in WSW 11 mph 17.2 mph 97 % 0 in
18:07 53.2 °F 52.5 °F 29.8 in WSW 14.3 mph 17.4 mph 97 % 0 in
18:12 53.2 °F 52.5 °F 29.8 in West 17.2 mph 17.4 mph 97 % 0 in
18:17 53.2 °F 52.3 °F 29.8 in WSW 13.6 mph 17.7 mph 97 % 0 in
18:23 53.2 °F 52.3 °F 29.9 in West 14.3 mph 17.7 mph 97 % 0 in
18:28 53.2 °F 52.3 °F 29.9 in West 12.5 mph 17.2 mph 97 % 0 in
18:33 53.2 °F 52.3 °F 29.9 in West 12.8 mph 17 mph 97 % 0 in
18:38 53.2 °F 52.3 °F 29.9 in West 14.8 mph 18.8 mph 97 % 0 in
18:43 53.2 °F 52.3 °F 29.9 in West 14.8 mph 20.4 mph 97 % 0 in
18:48 53.2 °F 52.3 °F 29.9 in WSW 16.3 mph 20.4 mph 97 % 0 in
18:53 53.1 °F 52.2 °F 29.9 in West 15.4 mph 17.2 mph 97 % 0 in
18:58 53.1 °F 52.2 °F 29.9 in West 12.8 mph 16.3 mph 97 % 0 in
19:03 53.1 °F 52.2 °F 29.9 in WSW 11 mph 19.9 mph 97 % 0 in
19:08 53.1 °F 52.2 °F 29.8 in WSW 13.4 mph 19.9 mph 97 % 0 in
19:13 53.1 °F 52.2 °F 29.8 in WSW 12.3 mph 16.6 mph 97 % 0 in
19:18 52.9 °F 52 °F 29.8 in WSW 10.7 mph 15.7 mph 97 % 0 in
19:23 52.9 °F 52 °F 29.9 in WSW 8.7 mph 15.7 mph 97 % 0 in
19:28 52.5 °F 52.2 °F 29.9 in WSW 8.7 mph 14.8 mph 98 % 0 in
19:33 52.5 °F 52.2 °F 29.9 in WSW 9.8 mph 14.8 mph 98 % 0 in
19:38 52.5 °F 52.2 °F 29.9 in WSW 10.1 mph 13.2 mph 98 % 0 in
19:43 52.5 °F 52.2 °F 29.9 in WSW 10.7 mph 15.2 mph 98 % 0 in
19:48 52.5 °F 52.2 °F 29.9 in WSW 11 mph 15.2 mph 98 % 0 in
19:53 52.9 °F 52.3 °F 29.8 in West 11.4 mph 13.4 mph 98 % 0 in
19:58 52.9 °F 52.3 °F 29.8 in WSW 10.5 mph 13.4 mph 98 % 0 in
20:03 52.9 °F 52.3 °F 29.8 in WSW 8.5 mph 13.2 mph 98 % 0 in
20:08 52.9 °F 52.3 °F 29.9 in WSW 10.1 mph 13.2 mph 98 % 0 in
20:13 52.9 °F 52.3 °F 29.9 in WSW 8.5 mph 14.5 mph 98 % 0 in
20:18 52.5 °F 52.2 °F 29.9 in WSW 8.1 mph 14.5 mph 98 % 0 in
20:23 52.5 °F 52.2 °F 29.8 in WSW 11.2 mph 13.2 mph 98 % 0 in
20:28 52.5 °F 52.2 °F 29.8 in WSW 13 mph 13 mph 98 % 0 in
20:33 52.5 °F 52.2 °F 29.8 in West 12.8 mph 13 mph 98 % 0 in
20:38 52.5 °F 52.2 °F 29.8 in WSW 11.9 mph 13.2 mph 98 % 0 in
20:43 52.9 °F 52.3 °F 29.8 in WSW 12.3 mph 15.2 mph 98 % 0 in
20:48 52.9 °F 52.3 °F 29.8 in WSW 10.5 mph 15.2 mph 98 % 0 in
20:53 52.9 °F 52 °F 29.9 in WSW 10.1 mph 13.6 mph 97 % 0 in
20:58 52.9 °F 52 °F 29.9 in West 12.3 mph 13.6 mph 97 % 0 in
21:03 52.9 °F 52 °F 29.9 in WSW 10.3 mph 17.7 mph 97 % 0 in
21:08 52.9 °F 52.3 °F 29.9 in West 10.7 mph 17.7 mph 98 % 0 in
21:13 52.9 °F 52.3 °F 29.9 in West 10.7 mph 17 mph 98 % 0 in
21:18 52.9 °F 52.3 °F 29.9 in WSW 11.9 mph 17.7 mph 98 % 0 in
21:23 52.9 °F 52.3 °F 29.9 in West 16.8 mph 19.9 mph 98 % 0 in
21:28 52.9 °F 52 °F 29.9 in WSW 13.4 mph 19.9 mph 97 % 0 in
21:33 52.9 °F 52 °F 29.9 in West 12.8 mph 19.9 mph 97 % 0 in
21:38 52.9 °F 52 °F 29.9 in WSW 12.5 mph 18.6 mph 97 % 0 in
21:48 52.9 °F 52 °F 29.9 in West 15.2 mph 17.7 mph 97 % 0 in
21:54 52.9 °F 52 °F 29.9 in West 14.3 mph 18.1 mph 97 % 0 in
21:59 52.9 °F 52 °F 29.9 in West 8.1 mph 18.1 mph 97 % 0 in
22:04 52.5 °F 51.8 °F 29.9 in WSW 12.5 mph 17.2 mph 97 % 0 in
22:09 52.5 °F 52.2 °F 29.9 in WSW 13.2 mph 17.2 mph 98 % 0 in
22:14 52.5 °F 52.2 °F 29.9 in West 12.5 mph 17 mph 98 % 0 in
22:19 52.5 °F 52.2 °F 29.9 in West 15.4 mph 17.2 mph 98 % 0 in
22:24 52.5 °F 52.2 °F 29.9 in WSW 9.6 mph 17.7 mph 98 % 0 in
22:29 52.5 °F 51.8 °F 29.9 in West 15.9 mph 17.7 mph 97 % 0 in
22:34 52.5 °F 52.2 °F 29.9 in WSW 13.9 mph 17.7 mph 98 % 0 in
22:39 52.5 °F 52.2 °F 29.9 in West 11 mph 17.9 mph 98 % 0 in
22:44 52.5 °F 51.8 °F 29.9 in West 15.4 mph 19.9 mph 97 % 0 in
22:49 52.5 °F 51.8 °F 29.9 in West 17.4 mph 20.1 mph 97 % 0 in
22:54 52.5 °F 51.8 °F 29.9 in WSW 12.3 mph 20.1 mph 97 % 0 in
22:59 52.5 °F 51.8 °F 29.9 in West 15.4 mph 18.6 mph 97 % 0 in
23:04 52.5 °F 51.8 °F 29.9 in WSW 15.4 mph 17.9 mph 97 % 0 in
23:09 52.5 °F 51.8 °F 29.9 in West 12.5 mph 17.9 mph 97 % 0 in
23:14 52.5 °F 51.8 °F 29.9 in WSW 12.3 mph 17 mph 97 % 0 in
23:19 52.5 °F 51.8 °F 29.9 in WSW 10.1 mph 17 mph 97 % 0 in
23:24 52.5 °F 51.8 °F 29.9 in West 11.9 mph 19.7 mph 97 % 0 in
23:29 52.5 °F 51.8 °F 29.9 in WSW 13.6 mph 19.7 mph 97 % 0 in
23:34 52.5 °F 51.8 °F 29.9 in WSW 8.7 mph 17.4 mph 97 % 0 in
23:39 52.5 °F 52.2 °F 29.9 in West 13.2 mph 19.7 mph 98 % 0 in
23:44 52.5 °F 52.2 °F 29.9 in WSW 14.8 mph 19.7 mph 98 % 0 in
23:49 52.5 °F 52 °F 29.9 in WSW 15.7 mph 17.4 mph 98 % 0 in
23:55 52.5 °F 52 °F 29.9 in West 11 mph 15.7 mph 98 % 0 in
Le Gheer Warneton
Courtoisie de Weather Underground - 2.25 mb

Mise a jour : 23/01/2018 06:32:11
Généré par Cumulus 1.9.4 (1099)